Waltz, Michigan
Current Conditions -  °F | °C
As of 5:53 AM on Tuesday 21 Oct 2014 (Local Time) from KDTW Reporting Station
Overcast Overcast  
Wind Chill: 46°   Ceiling: 2000
Heat Index: 49°   Visibility: 10mi
Dew Point: 43°   Wind: 7mph
Humidity: 80%   Direction: 310°NW
Pressure: 29.91"   Gusts: NA
Location:  42.1166°N, 83.4023°W
Report Text: KDTW 210953Z 31006KT 10SM BKN020 OVC045 09/06 A2991 RMK AO2 SLP131 T00940061
Loading
Personal Weather Stations






























Interactive Weather Map
Tropical Storm Tracking
New forecast layout! Learn more

10-Day Weather Forecast

Advertisements
Track Severe Weather on mobile